createdAt,value
2018-12-25T00:02:26.892Z,10.50
2018-12-25T00:04:56.121Z,10.03
2018-12-25T00:07:25.369Z,10.37
2018-12-25T00:10:13.946Z,9.73
2018-12-25T00:12:43.202Z,9.87
2018-12-25T00:15:31.790Z,9.50
2018-12-25T00:18:20.462Z,10.03
2018-12-25T00:20:49.709Z,10.17
2018-12-25T00:26:51.447Z,11.00
2018-12-25T00:29:20.674Z,10.17
2018-12-25T00:31:49.911Z,9.63
2018-12-25T00:34:19.162Z,9.57
2018-12-25T00:36:48.419Z,9.80
2018-12-25T00:39:17.645Z,9.87
2018-12-25T00:41:46.886Z,9.73
2018-12-25T00:44:16.124Z,10.63
2018-12-25T00:46:45.430Z,10.23
2018-12-25T00:49:15.162Z,10.60
2018-12-25T00:51:49.829Z,10.60
2018-12-25T00:54:38.405Z,10.60
2018-12-25T00:57:07.664Z,10.17
2018-12-25T00:59:36.898Z,10.33
2018-12-25T01:02:06.165Z,10.33
2018-12-25T01:04:35.404Z,10.03
2018-12-25T01:07:04.641Z,9.70
2018-12-25T01:10:11.281Z,9.90
2018-12-25T01:12:59.930Z,9.83
2018-12-25T01:15:29.175Z,10.27
2018-12-25T01:17:58.431Z,9.50
2018-12-25T01:20:27.677Z,9.93
2018-12-25T01:22:56.929Z,10.03
2018-12-25T01:25:45.523Z,9.57
2018-12-25T01:31:23.836Z,10.40
2018-12-25T01:33:53.093Z,10.27
2018-12-25T01:36:22.356Z,9.67
2018-12-25T01:38:51.591Z,10.30
2018-12-25T01:41:20.839Z,9.73
2018-12-25T01:43:50.096Z,10.00
2018-12-25T01:50:07.921Z,9.70
2018-12-25T01:52:37.159Z,9.87
2018-12-25T01:55:43.522Z,9.50
2018-12-25T01:58:12.786Z,10.30
2018-12-25T02:00:42.031Z,10.07
2018-12-25T02:03:11.374Z,10.43
2018-12-25T02:08:18.382Z,9.87
2018-12-25T02:10:47.606Z,10.33
2018-12-25T02:13:16.871Z,9.43
2018-12-25T02:15:46.107Z,10.03
2018-12-25T02:18:15.331Z,9.93
2018-12-25T02:20:44.618Z,10.37
2018-12-25T02:23:13.854Z,9.87
2018-12-25T02:29:14.736Z,9.53
2018-12-25T02:32:40.305Z,10.30
2018-12-25T02:35:09.534Z,10.13
2018-12-25T02:37:38.771Z,9.97
2018-12-25T02:40:27.362Z,10.30
2018-12-25T02:42:56.587Z,9.90
2018-12-25T02:45:25.823Z,10.00
2018-12-25T02:47:55.069Z,9.27
2018-12-25T02:50:24.310Z,9.43
2018-12-25T02:52:53.535Z,9.63
2018-12-25T02:55:22.761Z,9.67
2018-12-25T02:57:52.003Z,9.27
2018-12-25T03:00:21.247Z,9.27
2018-12-25T03:02:50.476Z,9.40
2018-12-25T03:05:19.728Z,9.60
2018-12-25T03:08:26.130Z,9.17
2018-12-25T03:10:55.374Z,9.57
2018-12-25T03:13:24.626Z,9.20
2018-12-25T03:15:53.866Z,9.57
2018-12-25T03:18:23.112Z,9.67
2018-12-25T03:20:52.354Z,10.73
2018-12-25T03:23:21.585Z,9.67
2018-12-25T03:25:50.810Z,9.40
2018-12-25T03:28:20.061Z,9.60
2018-12-25T03:30:49.297Z,9.13
2018-12-25T03:33:18.522Z,9.97
2018-12-25T03:35:47.743Z,9.17
2018-12-25T03:38:17.006Z,9.70
2018-12-25T03:40:46.224Z,9.90
2018-12-25T03:43:15.456Z,9.60
2018-12-25T03:45:44.675Z,9.40
2018-12-25T03:48:13.937Z,9.00
2018-12-25T03:50:43.218Z,9.40
2018-12-25T03:53:12.498Z,9.57
2018-12-25T03:55:41.835Z,9.33
2018-12-25T03:58:11.120Z,8.90
2018-12-25T04:00:40.360Z,8.80
2018-12-25T04:03:09.607Z,9.10
2018-12-25T04:05:38.911Z,8.80
2018-12-25T04:08:08.158Z,8.87
2018-12-25T04:10:37.403Z,9.23
2018-12-25T04:13:06.655Z,9.33
2018-12-25T04:19:08.145Z,9.20
2018-12-25T04:24:32.869Z,9.17
2018-12-25T04:27:02.105Z,9.83
2018-12-25T04:29:31.344Z,9.17
2018-12-25T04:32:00.574Z,9.37
2018-12-25T04:34:49.656Z,8.93
2018-12-25T04:37:18.874Z,8.23
2018-12-25T04:39:48.132Z,9.23
2018-12-25T04:42:17.382Z,8.40
2018-12-25T04:44:46.597Z,9.37
2018-12-25T04:47:15.857Z,9.00
2018-12-25T04:49:45.092Z,8.67
2018-12-25T04:52:14.349Z,9.40
2018-12-25T04:54:43.589Z,8.60
2018-12-25T04:57:12.869Z,9.40
2018-12-25T04:59:42.092Z,9.57
2018-12-25T05:02:11.327Z,9.30
2018-12-25T05:05:00.002Z,8.93
2018-12-25T05:07:29.252Z,8.97
2018-12-25T05:10:35.728Z,8.97
2018-12-25T05:13:04.967Z,8.53
2018-12-25T05:15:34.232Z,9.17
2018-12-25T05:18:22.826Z,8.37
2018-12-25T05:20:52.081Z,9.03
2018-12-25T05:23:21.303Z,9.00
2018-12-25T05:25:50.562Z,9.40
2018-12-25T05:28:19.810Z,9.03
2018-12-25T05:30:49.053Z,9.77
2018-12-25T05:33:18.361Z,8.73
2018-12-25T05:35:47.594Z,8.60
2018-12-25T05:38:16.853Z,9.57
2018-12-25T05:40:46.112Z,9.40
2018-12-25T05:43:15.389Z,9.07
2018-12-25T05:45:44.711Z,10.10
2018-12-25T05:48:33.303Z,8.37
2018-12-25T05:51:02.562Z,9.70
2018-12-25T05:53:31.839Z,8.97
2018-12-25T05:56:01.083Z,9.67
2018-12-25T05:58:30.338Z,9.20
2018-12-25T06:00:59.581Z,9.80
2018-12-25T06:03:28.835Z,9.30
2018-12-25T06:05:58.091Z,8.57
2018-12-25T06:08:27.341Z,9.87
2018-12-25T06:11:15.913Z,10.30
2018-12-25T06:13:45.178Z,9.63
2018-12-25T06:16:14.435Z,12.47
2018-12-25T06:18:43.683Z,14.03
2018-12-25T06:21:12.933Z,10.80
2018-12-25T06:23:42.169Z,11.37
2018-12-25T06:26:11.434Z,20.80
2018-12-25T06:28:40.684Z,13.93
2018-12-25T06:31:24.155Z,10.17
2018-12-25T06:33:59.963Z,9.77
2018-12-25T06:36:29.228Z,9.70
2018-12-25T06:38:58.469Z,10.37
2018-12-25T06:41:27.740Z,10.57
2018-12-25T06:43:56.998Z,10.73
2018-12-25T06:46:26.250Z,10.33
2018-12-25T06:48:55.506Z,10.47
2018-12-25T06:51:24.767Z,9.67
2018-12-25T06:53:54.011Z,10.80
2018-12-25T06:56:23.245Z,9.87
2018-12-25T06:58:52.514Z,10.27
2018-12-25T07:01:21.776Z,10.67
2018-12-25T07:03:51.036Z,10.53
2018-12-25T07:06:20.303Z,10.50
2018-12-25T07:08:49.557Z,10.43
2018-12-25T07:11:18.841Z,9.83
2018-12-25T07:14:07.420Z,9.90
2018-12-25T07:16:36.654Z,10.43
2018-12-25T07:19:05.900Z,10.67
2018-12-25T07:21:35.135Z,10.73
2018-12-25T07:24:04.463Z,10.30
2018-12-25T07:26:33.720Z,10.67
2018-12-25T07:29:02.980Z,10.50
2018-12-25T07:31:32.191Z,10.50
2018-12-25T07:34:01.431Z,9.33
2018-12-25T07:36:30.653Z,10.10
2018-12-25T07:38:59.903Z,10.60
2018-12-25T07:41:29.145Z,10.77
2018-12-25T07:43:58.386Z,10.80
2018-12-25T07:46:27.620Z,11.37
2018-12-25T07:48:56.854Z,10.40
2018-12-25T07:51:26.105Z,11.00
2018-12-25T07:53:55.358Z,10.90
2018-12-25T07:57:01.955Z,10.97
2018-12-25T07:59:31.196Z,11.13
2018-12-25T08:02:19.783Z,11.80
2018-12-25T08:04:49.043Z,10.90
2018-12-25T08:07:18.269Z,12.07
2018-12-25T08:09:47.550Z,10.80
2018-12-25T08:12:16.791Z,10.70
2018-12-25T08:14:46.038Z,10.67
2018-12-25T08:17:34.647Z,11.47
2018-12-25T08:20:43.964Z,11.27
2018-12-25T08:23:13.193Z,12.03
2018-12-25T08:25:42.436Z,12.60
2018-12-25T08:28:11.712Z,12.47
2018-12-25T08:30:40.963Z,13.00
2018-12-25T08:33:10.208Z,13.20
2018-12-25T08:39:41.962Z,13.50
2018-12-25T08:42:11.236Z,13.20
2018-12-25T08:44:40.480Z,13.43
2018-12-25T08:47:11.581Z,13.70
2018-12-25T08:49:59.783Z,14.00
2018-12-25T08:52:29.014Z,13.47
2018-12-25T08:54:58.271Z,13.43
2018-12-25T08:57:27.513Z,14.13
2018-12-25T08:59:56.749Z,13.43
2018-12-25T09:02:25.978Z,13.17
2018-12-25T09:05:14.580Z,12.93
2018-12-25T09:08:03.163Z,13.80
2018-12-25T09:10:32.405Z,14.33
2018-12-25T09:13:01.636Z,12.73
2018-12-25T09:15:30.889Z,13.00
2018-12-25T09:18:00.131Z,13.27
2018-12-25T09:20:29.359Z,12.47
2018-12-25T09:22:58.595Z,12.27
2018-12-25T09:25:27.844Z,12.93
2018-12-25T09:27:57.101Z,12.30
2018-12-25T09:30:26.323Z,13.13
2018-12-25T09:32:55.596Z,12.47
2018-12-25T09:35:24.830Z,12.63
2018-12-25T09:37:54.076Z,12.63
2018-12-25T09:40:42.703Z,12.27
2018-12-25T09:43:11.965Z,12.87
2018-12-25T09:45:41.244Z,12.03
2018-12-25T09:48:13.513Z,12.60
2018-12-25T09:51:20.184Z,11.27
2018-12-25T09:54:09.837Z,11.70
2018-12-25T09:56:58.409Z,11.77
2018-12-25T09:59:27.644Z,12.03
2018-12-25T10:01:56.897Z,10.30
2018-12-25T10:04:26.135Z,10.83
2018-12-25T10:07:14.741Z,10.53
2018-12-25T10:09:43.967Z,10.30
2018-12-25T10:12:13.228Z,9.50
2018-12-25T10:14:42.463Z,10.13
2018-12-25T10:17:11.727Z,10.40
2018-12-25T10:19:40.951Z,10.37
2018-12-25T10:22:10.196Z,10.07
2018-12-25T10:24:39.440Z,9.87
2018-12-25T10:27:28.036Z,10.33
2018-12-25T10:29:57.289Z,9.70
2018-12-25T10:32:26.524Z,10.60
2018-12-25T10:34:55.776Z,10.53
2018-12-25T10:37:25.029Z,10.50
2018-12-25T10:39:54.300Z,10.73
2018-12-25T10:42:23.546Z,10.63
2018-12-25T10:44:52.807Z,10.23
2018-12-25T10:47:22.029Z,9.90
2018-12-25T10:49:51.279Z,10.03
2018-12-25T10:52:20.532Z,9.00
2018-12-25T10:54:49.771Z,10.13
2018-12-25T10:57:19.013Z,10.40
2018-12-25T10:59:48.267Z,10.17
2018-12-25T11:02:17.522Z,10.90
2018-12-25T11:04:46.766Z,10.10
2018-12-25T11:07:16.009Z,10.13
2018-12-25T11:09:45.229Z,9.93
2018-12-25T11:12:14.467Z,9.83
2018-12-25T11:15:05.063Z,10.50
2018-12-25T11:17:34.304Z,10.30
2018-12-25T11:20:24.304Z,10.50
2018-12-25T11:22:53.553Z,9.53
2018-12-25T11:25:22.783Z,9.67
2018-12-25T11:27:52.015Z,9.67
2018-12-25T11:30:21.263Z,10.30
2018-12-25T11:32:50.526Z,10.00
2018-12-25T11:35:19.799Z,10.03
2018-12-25T11:37:49.039Z,10.10
2018-12-25T11:40:18.275Z,9.70
2018-12-25T11:42:47.540Z,9.80
2018-12-25T11:45:16.797Z,9.13
2018-12-25T11:47:46.038Z,10.03
2018-12-25T11:50:15.284Z,9.27
2018-12-25T11:52:44.519Z,9.20
2018-12-25T11:55:13.743Z,9.43
2018-12-25T11:57:42.998Z,10.30
2018-12-25T12:00:12.235Z,9.37
2018-12-25T12:02:41.496Z,9.07
2018-12-25T12:05:10.721Z,9.50
2018-12-25T12:07:39.986Z,9.77
2018-12-25T12:16:14.022Z,8.70
2018-12-25T12:18:43.270Z,10.07
2018-12-25T12:21:12.543Z,9.40
2018-12-25T12:24:01.198Z,9.90
2018-12-25T12:26:30.438Z,9.90
2018-12-25T12:29:56.020Z,9.63
2018-12-25T12:32:25.265Z,9.50
2018-12-25T12:34:54.512Z,9.37
2018-12-25T12:37:23.769Z,9.97
2018-12-25T12:40:12.359Z,9.17
2018-12-25T12:42:41.622Z,9.80
2018-12-25T12:45:10.868Z,9.97
2018-12-25T12:47:40.115Z,9.30
2018-12-25T12:50:49.376Z,9.97
2018-12-25T12:53:48.006Z,10.23
2018-12-25T12:56:17.279Z,9.83
2018-12-25T12:58:46.508Z,10.07
2018-12-25T13:01:15.746Z,10.03
2018-12-25T13:03:44.988Z,10.43
2018-12-25T13:06:14.247Z,10.27
2018-12-25T13:11:41.733Z,9.47
2018-12-25T13:14:10.989Z,10.70
2018-12-25T13:16:40.221Z,10.17
2018-12-25T13:19:28.837Z,9.80
2018-12-25T13:21:58.054Z,9.50
2018-12-25T13:24:27.302Z,10.37
2018-12-25T13:26:56.554Z,9.57
2018-12-25T13:29:25.835Z,8.77
2018-12-25T13:31:55.035Z,9.00
2018-12-25T13:34:24.269Z,8.20
2018-12-25T13:36:53.562Z,8.03
2018-12-25T13:39:42.152Z,8.90
2018-12-25T13:42:11.407Z,8.63
2018-12-25T13:44:59.979Z,8.77
2018-12-25T13:47:29.239Z,8.40
2018-12-25T13:50:27.686Z,8.27
2018-12-25T13:53:02.745Z,8.37
2018-12-25T13:55:46.983Z,8.50
2018-12-25T13:58:16.313Z,8.20
2018-12-25T14:01:04.641Z,8.63
2018-12-25T14:03:34.017Z,8.67
2018-12-25T14:06:03.226Z,8.30
2018-12-25T14:08:32.476Z,8.63
2018-12-25T14:11:57.982Z,9.17
2018-12-25T14:14:27.238Z,9.30
2018-12-25T14:16:56.489Z,9.57
2018-12-25T14:19:25.742Z,9.93
2018-12-25T14:21:54.997Z,9.77
2018-12-25T14:24:24.244Z,9.40
2018-12-25T14:26:53.588Z,10.30
2018-12-25T14:29:22.849Z,10.40
2018-12-25T14:31:52.100Z,10.87
2018-12-25T14:34:21.340Z,10.30
2018-12-25T14:36:50.599Z,10.90
2018-12-25T14:39:57.323Z,10.40
2018-12-25T14:42:26.583Z,11.20
2018-12-25T14:44:55.820Z,10.77
2018-12-25T14:47:25.085Z,10.60
2018-12-25T14:49:54.310Z,10.83
2018-12-25T14:52:23.577Z,11.20
2018-12-25T14:55:12.156Z,11.57
2018-12-25T14:57:41.410Z,11.90
2018-12-25T15:00:29.989Z,10.87
2018-12-25T15:02:59.248Z,11.47
2018-12-25T15:05:28.487Z,12.00
2018-12-25T15:07:57.734Z,12.00
2018-12-25T15:10:26.980Z,12.03
2018-12-25T15:12:56.223Z,12.47
2018-12-25T15:15:25.470Z,12.07
2018-12-25T15:17:54.715Z,11.60
2018-12-25T15:20:43.327Z,11.80
2018-12-25T15:23:12.574Z,11.77
2018-12-25T15:25:41.823Z,11.87
2018-12-25T15:28:11.048Z,12.07
2018-12-25T15:30:40.304Z,12.33
2018-12-25T15:33:09.552Z,12.37
2018-12-25T15:35:38.795Z,14.93
2018-12-25T15:38:08.142Z,13.57
2018-12-25T15:40:37.393Z,13.00
2018-12-25T15:43:06.633Z,12.97
2018-12-25T15:45:55.444Z,12.57
2018-12-25T15:48:24.708Z,13.73
2018-12-25T15:50:53.952Z,13.70
2018-12-25T15:53:23.204Z,13.10
2018-12-25T15:55:52.441Z,13.70
2018-12-25T16:02:24.275Z,13.27
2018-12-25T16:04:53.527Z,12.80
2018-12-25T16:10:11.937Z,12.50
2018-12-25T16:12:41.180Z,13.20
2018-12-25T16:15:10.456Z,14.10
2018-12-25T16:17:39.740Z,13.30
2018-12-25T16:20:48.991Z,12.70
2018-12-25T16:23:18.230Z,12.43
2018-12-25T16:25:47.505Z,13.87
2018-12-25T16:28:36.083Z,13.67
2018-12-25T16:31:05.355Z,12.93
2018-12-25T16:33:34.577Z,13.57
2018-12-25T16:36:03.819Z,13.67
2018-12-25T16:39:29.318Z,14.00
2018-12-25T16:41:58.584Z,12.43
2018-12-25T16:44:27.853Z,12.83
2018-12-25T16:46:57.106Z,13.80
2018-12-25T16:49:45.687Z,13.07
2018-12-25T16:52:14.953Z,13.20
2018-12-25T16:54:44.179Z,13.33
2018-12-25T16:57:32.754Z,13.37
2018-12-25T17:00:02.022Z,13.10
2018-12-25T17:02:50.618Z,13.20
2018-12-25T17:05:19.949Z,13.27
2018-12-25T17:08:08.324Z,13.17
2018-12-25T17:10:37.593Z,13.27
2018-12-25T17:13:06.844Z,12.37
2018-12-25T17:15:55.249Z,12.50
2018-12-25T17:18:24.467Z,12.07
2018-12-25T17:21:13.516Z,12.30
2018-12-25T17:23:42.734Z,13.20
2018-12-25T17:26:11.999Z,13.10
2018-12-25T17:29:00.582Z,12.30
2018-12-25T17:31:29.845Z,11.97
2018-12-25T17:33:59.107Z,12.10
2018-12-25T17:36:28.345Z,12.40
2018-12-25T17:38:57.602Z,11.53
2018-12-25T17:41:26.840Z,11.87
2018-12-25T17:43:56.097Z,14.43
2018-12-25T17:46:25.330Z,11.60
2018-12-25T17:48:54.569Z,11.73
2018-12-25T17:51:23.819Z,11.80
2018-12-25T17:53:53.092Z,13.70
2018-12-25T17:56:22.340Z,12.23
2018-12-25T17:58:51.582Z,13.43
2018-12-25T18:01:20.829Z,12.80
2018-12-25T18:03:50.085Z,12.10
2018-12-25T18:06:19.436Z,11.67
2018-12-25T18:08:48.660Z,12.93
2018-12-25T18:11:17.909Z,13.67
2018-12-25T18:13:47.140Z,13.27
2018-12-25T18:16:16.406Z,14.00
2018-12-25T18:18:45.642Z,13.93
2018-12-25T18:21:14.900Z,12.23
2018-12-25T18:23:44.126Z,13.70
2018-12-25T18:26:13.390Z,12.53
2018-12-25T18:28:42.626Z,12.80
2018-12-25T18:31:31.232Z,12.93
2018-12-25T18:34:00.465Z,14.07
2018-12-25T18:36:29.769Z,13.53
2018-12-25T18:38:58.959Z,13.63
2018-12-25T18:41:28.210Z,14.33
2018-12-25T18:43:57.468Z,14.97
2018-12-25T18:46:26.719Z,13.83
2018-12-25T18:48:55.989Z,14.97
2018-12-25T18:51:44.586Z,14.10
2018-12-25T18:54:13.842Z,16.20
2018-12-25T18:56:43.075Z,14.43
2018-12-25T18:59:12.344Z,15.43
2018-12-25T19:01:41.576Z,14.87
2018-12-25T19:04:10.819Z,14.43
2018-12-25T19:06:40.076Z,14.50
2018-12-25T19:09:09.306Z,14.60
2018-12-25T19:11:40.164Z,14.80
2018-12-25T19:17:59.445Z,14.13
2018-12-25T19:20:28.712Z,17.60
2018-12-25T19:22:57.967Z,14.20
2018-12-25T19:25:27.224Z,15.63
2018-12-25T19:27:56.472Z,14.90
2018-12-25T19:30:25.714Z,14.63
2018-12-25T19:32:54.987Z,15.63
2018-12-25T19:35:24.212Z,15.77
2018-12-25T19:37:53.478Z,17.00
2018-12-25T19:40:22.721Z,16.43
2018-12-25T19:43:11.332Z,15.80
2018-12-25T19:46:00.602Z,15.10
2018-12-25T19:48:29.893Z,15.87
2018-12-25T19:51:18.588Z,16.90
2018-12-25T19:53:47.820Z,16.67
2018-12-25T19:56:17.054Z,16.77
2018-12-25T19:58:46.291Z,17.13
2018-12-25T20:01:15.545Z,15.67
2018-12-25T20:04:24.835Z,15.37
2018-12-25T20:07:14.963Z,13.80
2018-12-25T20:10:04.713Z,14.53
2018-12-25T20:13:30.385Z,14.67
2018-12-25T20:16:18.876Z,14.23
2018-12-25T20:22:37.764Z,14.33
2018-12-25T20:29:41.394Z,15.40
2018-12-25T20:33:07.150Z,14.47
2018-12-25T20:36:15.121Z,14.43
2018-12-25T20:39:23.089Z,14.17
2018-12-25T20:42:47.492Z,13.70
2018-12-25T20:45:35.802Z,14.20
2018-12-25T20:48:43.759Z,14.87
2018-12-25T20:54:39.395Z,15.03
2018-12-25T20:57:48.731Z,13.80
2018-12-25T21:00:58.059Z,13.83
2018-12-25T21:04:23.850Z,13.93
2018-12-25T21:07:33.197Z,14.23
2018-12-25T21:14:12.543Z,14.03
2018-12-25T21:17:20.498Z,14.33
2018-12-25T21:22:59.698Z,14.73
2018-12-25T21:29:19.177Z,14.47
2018-12-25T21:31:48.456Z,14.83
2018-12-25T21:34:57.694Z,13.90
2018-12-25T21:37:26.935Z,15.13
2018-12-25T21:40:33.409Z,14.57
2018-12-25T21:43:02.700Z,14.33
2018-12-25T21:46:12.234Z,15.20
2018-12-25T21:48:41.476Z,14.27
2018-12-25T21:51:30.059Z,14.20
2018-12-25T21:57:09.905Z,14.73
2018-12-25T22:00:00.074Z,14.67
2018-12-25T22:05:45.320Z,15.50
2018-12-25T22:08:14.579Z,14.53
2018-12-25T22:10:43.797Z,15.57
2018-12-25T22:13:32.441Z,14.73
2018-12-25T22:16:01.731Z,14.40
2018-12-25T22:18:30.964Z,15.00
2018-12-25T22:21:00.189Z,15.33
2018-12-25T22:23:29.420Z,14.93
2018-12-25T22:25:58.700Z,15.60
2018-12-25T22:28:27.928Z,15.97
2018-12-25T22:31:15.986Z,16.13
2018-12-25T22:33:45.222Z,15.93
2018-12-25T22:36:14.493Z,17.30
2018-12-25T22:39:05.970Z,15.77
2018-12-25T22:41:33.793Z,16.27
2018-12-25T22:44:03.039Z,15.87
2018-12-25T22:46:32.288Z,16.23
2018-12-25T22:49:01.564Z,16.53
2018-12-25T22:51:30.813Z,16.93
2018-12-25T22:54:00.114Z,16.50
2018-12-25T22:56:29.368Z,15.90
2018-12-25T22:59:17.699Z,17.23
2018-12-25T23:01:46.906Z,17.77
2018-12-25T23:04:35.483Z,17.03
2018-12-25T23:07:04.733Z,17.13
2018-12-25T23:09:53.327Z,18.03
2018-12-25T23:12:22.561Z,16.10
2018-12-25T23:14:51.808Z,16.63
2018-12-25T23:17:21.051Z,18.33
2018-12-25T23:19:50.294Z,17.97
2018-12-25T23:22:19.527Z,16.80
2018-12-25T23:24:48.779Z,17.17
2018-12-25T23:27:18.033Z,17.47
2018-12-25T23:29:47.279Z,18.03
2018-12-25T23:32:16.537Z,17.33
2018-12-25T23:35:05.143Z,18.47
2018-12-25T23:37:34.364Z,16.63
2018-12-25T23:43:10.921Z,17.63
2018-12-25T23:45:40.158Z,17.53
2018-12-25T23:48:09.394Z,17.60
2018-12-25T23:50:38.625Z,18.27
2018-12-25T23:53:27.519Z,17.27
2018-12-25T23:55:56.740Z,16.67
2018-12-25T23:58:26.003Z,18.20
